NEODyS-2

Near Earth Objects - Dynamic Site
NEODyS ∴ Observatories ∴ Site 691 ∴ Obs & residuals
Contact »
691  ▹ 
OBSERVATIONS AND RESIDUALS

691-Steward Observatory, Kitt Peak-Spacewatch

Detections | Residuals | Detections & Residuals

[1-200] [201-400] [401-600] [601-800] [801-1000] [1001-1200] [1201-1400] [1401-1600] [1601-1800] [1801-2000] [2001-2200] [2201-2400] [2401-2600] [2601-2800] [2801-3000] [3001-3200] [3201-3400] [3401-3600] [3601-3800] [3801-4000] [4001-4200] [4201-4400] [4401-4600] [4601-4800] [4801-5000] [5001-5200] [5201-5400] [5401-5600] [5601-5800] [5801-6000] [6001-6200] [6201-6400] [6401-6600] [6601-6800] [6801-7000] [7001-7200] [7201-7400] [7401-7600] [7601-7800] [7801-8000] [8001-8200] [8201-8400] [8401-8600] [8601-8800] [8801-9000] [9001-9200] [9201-9400] [9401-9600] [9601-9800] [9801-10000] [10001-10200] [10201-10400] [10401-10600] [10601-10800] [10801-11000] [11001-11200] [11201-11400] [11401-11600] [11601-11800] [11801-12000] [12001-12200] [12201-12400] [12401-12600] [12601-12800] [12801-13000] [13001-13200] [13201-13400] [13401-13600] [13601-13800] [13801-14000] [14001-14200] [14201-14400] [14401-14600] [14601-14800] [14801-15000] [15001-15200] [15201-15400] [15401-15600] [15601-15800] [15801-16000] [16001-16200] [16201-16400] [16401-16600] [16601-16800] [16801-17000] [17001-17200] [17201-17400] [17401-17600] [17601-17800] [17801-18000] [18001-18200] [18201-18400] [18401-18600] [18601-18800] [18801-19000] [19001-19200] [19201-19400] [19401-19600] [19601-19800] [19801-20000] [20001-20200] [20201-20400] [20401-20600] [20601-20800] [20801-21000] [21001-21200] [21201-21400] [21401-21600] [21601-21800] [21801-22000] [22001-22200] [22201-22400] [22401-22600] [22601-22800] [22801-23000] [23001-23200] [23201-23400] [23401-23600] [23601-23800] [23801-24000] [24001-24200] [24201-24400] [24401-24600] [24601-24800] [24801-25000] [25001-25200] [25201-25400] [25401-25600] [25601-25800] [25801-26000] [26001-26200] [26201-26400] [26401-26600] [26601-26800] [26801-27000] [27001-27200] [27201-27400] [27401-27600] [27601-27800] [27801-28000] [28001-28200] [28201-28400] [28401-28600] [28601-28800] [28801-29000] [29001-29200] [29201-29400] [29401-29600] [29601-29800] [29801-30000] [30001-30200] [30201-30400] [30401-30600] [30601-30800] [30801-31000] [31001-31200] [31201-31400] [31401-31600] [31601-31800] [31801-32000] [32001-32200] [32201-32400] [32401-32600] [32601-32800] [32801-33000] [33001-33200] [33201-33400] [33401-33600] [33601-33800] [33801-34000] [34001-34200] [34201-34400] [34401-34600] [34601-34800] [34801-35000] [35001-35200] [35201-35400] [35401-35600] [35601-35800] [35801-36000] [36001-36200] [36201-36400] [36401-36600] [36601-36800] [36801-37000] [37001-37200] [37201-37400] [37401-37600] [37601-37800] [37801-38000] [38001-38200] [38201-38400] [38401-38600] [38601-38800] [38801-39000] [39001-39200] [39201-39400] [39401-39600] [39601-39800] [39801-40000] [40001-40200] [40201-40400] [40401-40600] [40601-40800] [40801-41000] [41001-41200] [41201-41400] [41401-41600] [41601-41800] [41801-42000] [42001-42200] [42201-42400] [42401-42600] [42601-42800] [42801-43000] [43001-43200] [43201-43400] [43401-43600] [43601-43800] [43801-44000] [44001-44200] [44201-44400] [44401-44600] [44601-44800] [44801-45000] [45001-45200] [45201-45400] [45401-45600] [45601-45800] [45801-46000] [46001-46200] [46201-46400] [46401-46600] [46601-46800] [46801-47000] [47001-47200] [47201-47400] [47401-47600] [47601-47800] [47801-48000] [48001-48200] [48201-48400] [48401-48600] [48601-48800] [48801-49000] [49001-49200] [49201-49400] [49401-49600] [49601-49800] [49801-50000] [50001-50200] [50201-50388]

Designation T Tech N Date Right Ascension Declination Apparent Magnitude Star Catalog Site code χ Used A Used M
yr-mo-day precision hr:min:sec precision rms F bias residual deg min sec precision rms F bias residual mag/col rms residual
2008RX24 O C 2008-10-19.12806 1.000E-05 00:26:41.640 1.500E-01 0.500 F -0.132 -0.222 +04° 49' 09.00" 1.000E-01 0.500 F 0.264 -0.171 20.4 V 0.70 -0.18 o 691 0.57 Yes Yes
2002VU94 O C 2008-10-19.25571 1.000E-05 02:56:50.660 1.500E-01 0.500 F -0.281 0.228 +18° 47' 03.70" 1.000E-01 0.500 F 0.157 0.063 19.0 V 0.70 -0.12 o 691 0.47 Yes Yes
2002VU94 O C 2008-10-19.27333 1.000E-05 02:56:49.300 1.500E-01 0.500 F -0.281 -0.080 +18° 46' 55.60" 1.000E-01 0.500 F 0.157 -0.060 19.1 V 0.70 -0.01 o 691 0.20 Yes Yes
2002VU94 O C 2008-10-19.29095 1.000E-05 02:56:47.960 1.500E-01 0.500 F -0.281 -0.073 +18° 46' 47.60" 1.000E-01 0.500 F 0.157 -0.066 19.1 V 0.70 -0.01 o 691 0.20 Yes Yes
2001SG276 O C 2008-10-19.30349 1.000E-05 03:09:20.690 1.500E-01 0.500 F -0.161 -0.198 +19° 40' 51.70" 1.000E-01 0.500 F 0.208 -0.131 19.4 V 0.70 0.07 o 691 0.48 Yes Yes
1999YB O C t 2008-10-19.30595 1.000E-05 03:16:31.010 1.500E-01 0.500 F -0.279 0.309 +19° 20' 33.00" 1.000E-01 0.500 F 0.257 -0.894 18.4 V 0.70 -0.14 o 691 1.90 Yes Yes
2001SG276 O C 2008-10-19.32110 1.000E-05 03:09:18.230 1.500E-01 0.500 F -0.161 -0.305 +19° 41' 07.10" 1.000E-01 0.500 F 0.208 0.023 19.4 V 0.70 0.07 o 691 0.61 Yes Yes
1999YB O C t 2008-10-19.32356 1.000E-05 03:16:29.230 1.500E-01 0.500 F -0.279 0.353 +19° 20' 40.90" 1.000E-01 0.500 F 0.257 -0.935 18.3 V 0.70 -0.24 o 691 2.00 Yes Yes
2001SG276 O C 2008-10-19.33871 1.000E-05 03:09:15.770 1.500E-01 0.500 F -0.161 -0.368 +19° 41' 22.30" 1.000E-01 0.500 F 0.208 0.017 19.3 V 0.70 -0.03 o 691 0.74 Yes Yes
1999YB O C t 2008-10-19.34117 1.000E-05 03:16:27.480 1.500E-01 0.500 F -0.279 0.895 +19° 20' 48.80" 1.000E-01 0.500 F 0.257 -0.908 18.3 V 0.70 -0.24 o 691 2.56 Yes Yes
2001HG31 O C 2008-10-19.35859 1.000E-05 03:27:46.740 1.500E-01 0.500 F -0.206 -0.079 +18° 44' 17.70" 1.000E-01 0.500 F 0.315 0.089 16.6 V 0.70 0.11 o 691 0.24 Yes Yes
2001HG31 O C 2008-10-19.37620 1.000E-05 03:27:46.850 1.500E-01 0.500 F -0.206 -0.066 +18° 44' 28.70" 1.000E-01 0.500 F 0.315 0.040 16.6 V 0.70 0.11 o 691 0.15 Yes Yes
1986DA O C H 2008-10-19.38111 1.000E-05 03:45:02.140 1.500E-01 0.500 F -0.098 0.340 +18° 14' 35.50" 1.000E-01 0.500 F 0.165 -0.154 o 691 0.75 Yes No
2004TU11 O C t 2008-10-19.38628 1.000E-05 03:29:21.720 1.500E-01 0.500 F -0.287 0.681 +17° 10' 52.50" 1.000E-01 0.500 F 0.217 -0.378 19.7 V 0.70 0.06 o 691 1.58 Yes Yes
2001HG31 O C 2008-10-19.39380 1.000E-05 03:27:46.950 1.500E-01 0.500 F -0.206 -0.184 +18° 44' 39.70" 1.000E-01 0.500 F 0.315 0.043 16.6 V 0.70 0.11 o 691 0.38 Yes Yes
1986DA O C H 2008-10-19.39873 1.000E-05 03:45:01.330 1.500E-01 0.500 F -0.098 -0.522 +18° 14' 33.50" 1.000E-01 0.500 F 0.165 -0.167 o 691 1.10 Yes No
2004TU11 O C t 2008-10-19.40389 1.000E-05 03:29:24.920 1.500E-01 0.500 F -0.287 0.622 +17° 10' 37.30" 1.000E-01 0.500 F 0.217 -0.447 20.3 V 0.70 0.66 o 691 1.55 Yes Yes
2001JL1 O C H 2008-10-19.42883 1.000E-05 04:17:24.530 1.500E-01 0.500 F -0.229 0.017 +21° 30' 03.30" 1.000E-01 0.500 F 0.118 -0.136 19.4 V 0.70 0.29 o 691 0.27 Yes Yes
2001JL1 O C H 2008-10-19.44647 1.000E-05 04:17:24.540 1.500E-01 0.500 F -0.229 0.504 +21° 29' 42.70" 1.000E-01 0.500 F 0.118 -0.706 o 691 1.74 Yes No
2001JL1 O C H 2008-10-19.46410 1.000E-05 04:17:24.460 1.500E-01 0.500 F -0.229 -0.274 +21° 29' 23.30" 1.000E-01 0.500 F 0.118 -0.045 19.4 V 0.70 0.29 o 691 0.56 Yes Yes
2000NG11 O C H 2008-10-19.47117 1.000E-05 09:29:34.930 1.500E-01 0.500 F 0.026 -0.472 +15° 23' 08.60" 1.000E-01 0.500 F 0.278 0.379 20.5 V 0.70 -0.17 o 691 1.21 Yes Yes
2000NG11 O C H 2008-10-19.48377 1.000E-05 09:29:36.440 1.500E-01 0.500 F 0.026 -0.520 +15° 23' 01.20" 1.000E-01 0.500 F 0.278 -0.121 20.8 V 0.70 0.13 o 691 1.07 Yes Yes
2000NG11 O C H 2008-10-19.49635 1.000E-05 09:29:37.960 1.500E-01 0.500 F 0.026 -0.364 +15° 22' 53.30" 1.000E-01 0.500 F 0.278 -1.129 20.4 V 0.70 -0.27 o 691 2.37 Yes Yes
2005UP156 O C 2008-10-20.25232 1.000E-05 03:21:31.980 1.500E-01 0.500 F -0.271 -0.002 +14° 52' 34.60" 1.000E-01 0.500 F 0.225 0.020 19.7 V 0.70 -0.09 o 691 0.04 Yes Yes
2005UP156 O C 2008-10-20.26995 1.000E-05 03:21:30.550 1.500E-01 0.500 F -0.271 -0.552 +14° 52' 26.70" 1.000E-01 0.500 F 0.225 -0.034 19.8 V 0.70 0.01 o 691 1.11 Yes Yes
2005UP156 O C 2008-10-20.28759 1.000E-05 03:21:29.140 1.500E-01 0.500 F -0.271 -0.747 +14° 52' 18.90" 1.000E-01 0.500 F 0.225 0.034 19.5 V 0.70 -0.29 o 691 1.50 Yes Yes
2007JJ35 O C H 2008-10-20.37854 1.000E-05 04:08:02.330 1.500E-01 0.500 F -0.012 -0.843 +26° 05' 17.40" 1.000E-01 0.500 F 0.237 -0.304 21.4 V 0.70 -0.13 o 691 1.80 Yes Yes
2007JJ35 O C H 2008-10-20.39620 1.000E-05 04:08:01.040 1.500E-01 0.500 F -0.012 0.379 +26° 04' 53.30" 1.000E-01 0.500 F 0.237 0.465 20.8 V 0.70 -0.73 o 691 1.20 Yes Yes
2008TA1 O C 2008-10-21.09947 1.000E-05 00:46:53.370 1.500E-01 0.500 F -0.166 -0.297 +04° 20' 44.20" 1.000E-01 0.500 F 0.085 0.132 20.0 V 0.70 -0.16 o 691 0.65 Yes Yes
2003SG170 O C 2008-10-21.10206 1.000E-05 00:42:32.450 1.500E-01 0.500 F -0.183 -0.476 +03° 41' 43.30" 1.000E-01 0.500 F 0.092 -0.147 19.7 V 0.70 0.19 o 691 1.00 Yes Yes
2008TA1 O C 2008-10-21.11521 1.000E-05 00:46:51.210 1.500E-01 0.500 F -0.166 -0.304 +04° 20' 42.40" 1.000E-01 0.500 F 0.085 0.229 19.9 V 0.70 -0.26 o 691 0.76 Yes Yes
2003SG170 O C 2008-10-21.11780 1.000E-05 00:42:30.860 1.500E-01 0.500 F -0.183 -0.033 +03° 41' 10.50" 1.000E-01 0.500 F 0.092 -0.053 19.9 V 0.70 0.39 o 691 0.12 Yes Yes
2008TA1 O C 2008-10-21.13095 1.000E-05 00:46:49.040 1.500E-01 0.500 F -0.166 -0.392 +04° 20' 39.90" 1.000E-01 0.500 F 0.085 -0.372 19.9 V 0.70 -0.26 o 691 1.09 Yes Yes
2003SG170 O C 2008-10-21.13354 1.000E-05 00:42:29.240 1.500E-01 0.500 F -0.183 0.021 +03° 40' 37.60" 1.000E-01 0.500 F 0.092 -0.053 19.6 V 0.70 0.09 o 691 0.11 Yes Yes
2001SG276 O C 2008-10-21.27108 1.000E-05 03:04:48.510 1.500E-01 0.500 F -0.102 -0.294 +20° 08' 45.60" 1.000E-01 0.500 F 0.231 0.060 19.4 V 0.70 0.14 o 691 0.60 Yes Yes
2001SG276 O C 2008-10-21.28875 1.000E-05 03:04:45.940 1.500E-01 0.500 F -0.102 -0.370 +20° 09' 00.40" 1.000E-01 0.500 F 0.231 -0.166 19.3 V 0.70 0.04 o 691 0.81 Yes Yes
2001SG276 O C 2008-10-21.30641 1.000E-05 03:04:43.390 1.500E-01 0.500 F -0.102 -0.125 +20° 09' 15.50" 1.000E-01 0.500 F 0.231 -0.044 19.4 V 0.70 0.14 o 691 0.27 Yes Yes
Hephaistos O C 2008-10-21.38388 1.000E-05 04:02:08.510 1.500E-01 0.500 F -0.092 -0.042 +27° 43' 34.90" 1.000E-01 0.500 F 0.146 0.101 19.3 V 0.70 -0.08 o 691 0.22 Yes Yes
Hephaistos O C 2008-10-21.40198 1.000E-05 04:02:07.500 1.500E-01 0.500 F -0.092 -0.135 +27° 43' 34.20" 1.000E-01 0.500 F 0.146 -0.117 19.4 V 0.70 0.02 o 691 0.36 Yes Yes
Hephaistos O C 2008-10-21.41975 1.000E-05 04:02:06.500 1.500E-01 0.500 F -0.092 -0.333 +27° 43' 33.80" 1.000E-01 0.500 F 0.146 -0.028 19.3 V 0.70 -0.08 o 691 0.67 Yes Yes
2005TB O C 2008-10-21.43504 1.000E-05 04:44:27.460 1.500E-01 0.500 F -0.159 -0.004 +25° 27' 30.80" 1.000E-01 0.500 F 0.235 -0.165 18.1 V 0.70 -0.24 o 691 0.33 Yes Yes
2005TB O C 2008-10-21.45272 1.000E-05 04:44:25.300 1.500E-01 0.500 F -0.159 -0.066 +25° 26' 47.90" 1.000E-01 0.500 F 0.235 -0.113 18.2 V 0.70 -0.14 o 691 0.26 Yes Yes
2005TB O C 2008-10-21.47038 1.000E-05 04:44:23.140 1.500E-01 0.500 F -0.159 -0.174 +25° 26' 04.90" 1.000E-01 0.500 F 0.235 -0.127 18.7 V 0.70 0.37 o 691 0.43 Yes Yes
1992TC O C H 2008-10-21.50164 1.000E-05 09:50:54.840 1.500E-01 0.500 F -0.070 1.181 +15° 28' 30.40" 1.000E-01 0.500 F 0.224 -0.889 20.8 V 0.70 -0.77 o 691 2.96 Yes Yes
1992TC O C H 2008-10-21.51174 1.000E-05 09:50:56.100 1.500E-01 0.500 F -0.070 0.592 +15° 28' 26.00" 1.000E-01 0.500 F 0.224 -1.004 21.0 V 0.70 -0.57 o 691 2.33 Yes Yes
2001SG276 O C 2008-10-22.20248 1.000E-05 03:02:35.790 1.500E-01 0.500 F -0.074 -0.303 +20° 21' 43.60" 1.000E-01 0.500 F 0.312 0.022 19.2 V 0.70 -0.03 o 691 0.61 Yes Yes
2001SG276 O C 2008-10-22.22016 1.000E-05 03:02:33.190 1.500E-01 0.500 F -0.074 -0.379 +20° 21' 58.40" 1.000E-01 0.500 F 0.312 -0.150 19.3 V 0.70 0.07 o 691 0.82 Yes Yes
2001SG276 O C 2008-10-22.23783 1.000E-05 03:02:30.590 1.500E-01 0.500 F -0.074 -0.378 +20° 22' 13.50" 1.000E-01 0.500 F 0.312 0.018 19.3 V 0.70 0.07 o 691 0.76 Yes Yes
2005YY128 O C 2008-10-22.24700 1.000E-05 03:19:44.140 1.500E-01 0.612 F -0.193 -0.672 +25° 40' 48.40" 1.000E-01 0.612 F 0.173 0.011 20.2 V 0.70 -0.31 o 691 1.10 Yes Yes
2005YY128 O C 2008-10-22.24947 1.000E-05 03:19:43.820 1.500E-01 0.612 F -0.193 -0.116 +25° 40' 47.30" 1.000E-01 0.612 F 0.173 0.093 20.6 V 0.70 0.09 o 691 0.24 Yes Yes
2005YY128 O C 2008-10-22.26467 1.000E-05 03:19:41.570 1.500E-01 0.612 F -0.193 -0.467 +25° 40' 39.80" 1.000E-01 0.612 F 0.173 -0.120 20.5 V 0.70 -0.01 o 691 0.79 Yes Yes
2005YY128 O C 2008-10-22.26714 1.000E-05 03:19:41.220 1.500E-01 0.612 F -0.193 -0.309 +25° 40' 38.60" 1.000E-01 0.612 F 0.173 -0.133 20.4 V 0.70 -0.11 o 691 0.55 Yes Yes
2005YY128 O C 2008-10-22.28234 1.000E-05 03:19:38.970 1.500E-01 0.612 F -0.193 -0.614 +25° 40' 31.30" 1.000E-01 0.612 F 0.173 -0.114 20.4 V 0.70 -0.11 o 691 1.02 Yes Yes
2005YY128 O C 2008-10-22.28481 1.000E-05 03:19:38.610 1.500E-01 0.612 F -0.193 -0.584 +25° 40' 30.10" 1.000E-01 0.612 F 0.173 -0.122 20.2 V 0.70 -0.31 o 691 0.98 Yes Yes
2006BG O C 2008-10-22.30930 1.000E-05 03:35:21.300 1.500E-01 0.612 F -0.102 -0.371 +28° 10' 03.40" 1.000E-01 0.612 F 0.177 0.387 20.3 V 0.70 -0.15 o 691 0.87 Yes Yes
2006BG O C 2008-10-22.31177 1.000E-05 03:35:20.890 1.500E-01 0.612 F -0.102 -0.163 +28° 10' 01.60" 1.000E-01 0.612 F 0.177 0.004 20.6 V 0.70 0.15 o 691 0.26 Yes Yes
2006BG O C 2008-10-22.32698 1.000E-05 03:35:18.290 1.500E-01 0.612 F -0.102 0.142 +28° 09' 53.00" 1.000E-01 0.612 F 0.177 0.158 20.2 V 0.70 -0.25 o 691 0.36 Yes Yes
2006BG O C 2008-10-22.32945 1.000E-05 03:35:17.840 1.500E-01 0.612 F -0.102 -0.173 +28° 09' 50.90" 1.000E-01 0.612 F 0.177 -0.517 20.5 V 0.70 0.05 o 691 0.89 Yes Yes
2006BG O C 2008-10-22.34466 1.000E-05 03:35:15.240 1.500E-01 0.612 F -0.102 0.160 +28° 09' 42.70" 1.000E-01 0.612 F 0.177 0.085 20.1 V 0.70 -0.35 o 691 0.31 Yes Yes
2006BG O C 2008-10-22.34713 1.000E-05 03:35:14.800 1.500E-01 0.612 F -0.102 -0.020 +28° 09' 40.50" 1.000E-01 0.612 F 0.177 -0.681 20.5 V 0.70 0.05 o 691 1.11 Yes Yes
2008TD2 O C H 2008-10-22.41900 1.000E-05 04:35:02.560 1.500E-01 0.500 F -0.061 -0.220 +28° 59' 14.40" 1.000E-01 0.500 F 0.127 0.186 20.9 V 0.70 0.12 o 691 0.58 Yes Yes
2008TD2 O C H 2008-10-22.43677 1.000E-05 04:35:00.450 1.500E-01 0.500 F -0.061 0.416 +28° 59' 24.50" 1.000E-01 0.500 F 0.127 -0.534 o 691 1.38 Yes No
2008TD2 O C H 2008-10-22.45445 1.000E-05 04:34:58.180 1.500E-01 0.500 F -0.061 -1.226 +28° 59' 37.30" 1.000E-01 0.500 F 0.127 1.688 20.5 V 0.70 -0.28 o 691 4.11 No Yes
2008SE O C 2008-10-23.19839 1.000E-05 02:37:16.190 1.500E-01 0.500 F -0.405 -0.115 +18° 18' 07.70" 1.000E-01 0.500 F 0.208 -0.079 17.8 V 0.70 0.28 o 691 0.28 Yes Yes
2002VU94 O C 2008-10-23.20084 1.000E-05 02:51:52.890 1.500E-01 0.500 F -0.295 -0.221 +18° 16' 11.70" 1.000E-01 0.500 F 0.182 -0.060 19.1 V 0.70 0.05 o 691 0.46 Yes Yes
2008UR2 O C 2008-10-23.20602 1.000E-05 02:36:19.110 1.500E-01 0.500 F -0.222 0.571 +16° 31' 38.60" 1.000E-01 0.500 F 0.282 -0.766 19.1 V 0.70 -0.15 o 691 2.09 Yes Yes
2008SE O C 2008-10-23.21602 1.000E-05 02:37:17.740 1.500E-01 0.500 F -0.405 -0.067 +18° 17' 32.60" 1.000E-01 0.500 F 0.208 -0.062 18.2 V 0.70 0.68 o 691 0.18 Yes Yes
2002VU94 O C 2008-10-23.21848 1.000E-05 02:51:51.500 1.500E-01 0.500 F -0.295 -0.461 +18° 16' 03.20" 1.000E-01 0.500 F 0.182 -0.203 19.1 V 0.70 0.05 o 691 1.01 Yes Yes
2008UR2 O C 2008-10-23.22366 1.000E-05 02:36:25.650 1.500E-01 0.500 F -0.222 -0.129 +16° 29' 41.60" 1.000E-01 0.500 F 0.282 -0.179 19.2 V 0.70 -0.06 o 691 0.46 Yes Yes
2008SE O C 2008-10-23.23365 1.000E-05 02:37:19.260 1.500E-01 0.500 F -0.405 -0.188 +18° 16' 57.40" 1.000E-01 0.500 F 0.208 -0.061 17.7 V 0.70 0.18 o 691 0.40 Yes Yes
2002VU94 O C 2008-10-23.23611 1.000E-05 02:51:50.140 1.500E-01 0.500 F -0.295 -0.244 +18° 15' 55.00" 1.000E-01 0.500 F 0.182 -0.036 19.1 V 0.70 0.06 o 691 0.49 Yes Yes
2008UR2 O C 2008-10-23.24129 1.000E-05 02:36:31.990 1.500E-01 0.500 F -0.222 0.020 +16° 27' 43.90" 1.000E-01 0.500 F 0.282 -0.341 19.2 V 0.70 -0.07 o 691 0.73 Yes Yes
2001HG31 O C 2008-10-23.30633 1.000E-05 03:28:17.070 1.500E-01 0.500 F -0.186 -0.134 +19° 26' 54.10" 1.000E-01 0.500 F 0.261 0.086 16.5 V 0.70 0.24 o 691 0.32 Yes Yes
1986DA O C H 2008-10-23.31126 1.000E-05 03:42:10.720 1.500E-01 0.500 F -0.085 -0.055 +18° 06' 42.40" 1.000E-01 0.500 F 0.162 -0.551 20.7 V 0.70 -0.34 o 691 1.11 Yes Yes
2008US2 O C 2008-10-23.31372 1.000E-05 03:46:26.790 1.500E-01 0.500 F -0.010 -0.298 +18° 28' 41.00" 1.000E-01 0.500 F 0.191 -0.187 20.6 V 0.70 -0.21 o 691 0.73 Yes Yes
2001HG31 O C 2008-10-23.32397 1.000E-05 03:28:17.030 1.500E-01 0.500 F -0.186 -0.121 +19° 27' 06.00" 1.000E-01 0.500 F 0.261 0.009 16.6 V 0.70 0.34 o 691 0.24 Yes Yes
1986DA O C H 2008-10-23.32888 1.000E-05 03:42:09.850 1.500E-01 0.500 F -0.085 -0.600 +18° 06' 40.40" 1.000E-01 0.500 F 0.162 -0.334 20.9 V 0.70 -0.14 o 691 1.38 Yes Yes
2008US2 O C 2008-10-23.33135 1.000E-05 03:46:29.060 1.500E-01 0.500 F -0.010 -0.116 +18° 29' 30.00" 1.000E-01 0.500 F 0.191 0.381 20.6 V 0.70 -0.21 o 691 0.84 Yes Yes
2001HG31 O C 2008-10-23.34161 1.000E-05 03:28:16.990 1.500E-01 0.500 F -0.186 -0.055 +19° 27' 18.00" 1.000E-01 0.500 F 0.261 0.082 16.6 V 0.70 0.34 o 691 0.20 Yes Yes
1986DA O C H 2008-10-23.34653 1.000E-05 03:42:09.060 1.500E-01 0.500 F -0.085 0.031 +18° 06' 39.00" 1.000E-01 0.500 F 0.162 0.499 21.1 V 0.70 0.06 o 691 1.00 Yes Yes
2008US2 O C 2008-10-23.34899 1.000E-05 03:46:31.300 1.500E-01 0.500 F -0.010 -0.172 +18° 30' 18.40" 1.000E-01 0.500 F 0.191 0.522 20.6 V 0.70 -0.21 o 691 1.15 Yes Yes
2001JL1 O C 2008-10-23.37672 1.000E-05 04:17:13.750 1.500E-01 0.500 F -0.172 -0.223 +20° 10' 50.60" 1.000E-01 0.500 F 0.208 0.012 19.1 V 0.70 0.18 o 691 0.45 Yes Yes
2008TT26 O C t 2008-10-23.38437 1.000E-05 04:07:16.720 1.500E-01 0.500 F -0.112 0.863 +22° 58' 01.40" 1.000E-01 0.500 F 0.181 -0.474 14.6 V 0.70 -0.19 o 691 2.05 Yes Yes
2001JL1 O C 2008-10-23.39441 1.000E-05 04:17:13.550 1.500E-01 0.500 F -0.172 -0.330 +20° 10' 27.90" 1.000E-01 0.500 F 0.208 -0.115 19.1 V 0.70 0.18 o 691 0.70 Yes Yes
2008TT26 O C t 2008-10-23.40206 1.000E-05 04:08:14.460 1.500E-01 0.500 F -0.112 0.650 +22° 41' 31.50" 1.000E-01 0.500 F 0.181 -0.485 14.5 V 0.70 -0.30 o 691 1.69 Yes Yes
2001JL1 O C 2008-10-23.41209 1.000E-05 04:17:13.370 1.500E-01 0.500 F -0.172 -0.143 +20° 10' 05.50" 1.000E-01 0.500 F 0.208 0.090 19.1 V 0.70 0.18 o 691 0.34 Yes Yes
2002VY94 O C 2008-10-23.41941 1.000E-05 04:19:44.270 1.500E-01 0.500 F -0.192 -0.121 +33° 14' 28.60" 1.000E-01 0.500 F 0.230 -0.163 19.8 V 0.70 -0.14 o 691 0.41 Yes Yes
2002VY94 O C 2008-10-23.43721 1.000E-05 04:19:43.940 1.500E-01 0.500 F -0.192 -0.220 +33° 14' 30.90" 1.000E-01 0.500 F 0.230 -0.001 19.8 V 0.70 -0.14 o 691 0.44 Yes Yes
2002VY94 O C 2008-10-23.45498 1.000E-05 04:19:43.620 1.500E-01 0.500 F -0.192 -0.208 +33° 14' 33.00" 1.000E-01 0.500 F 0.230 0.007 19.8 V 0.70 -0.14 o 691 0.42 Yes Yes
2005TR15 O C H 2008-10-24.08965 1.000E-05 00:32:36.380 1.500E-01 0.500 F -0.194 0.355 +05° 32' 22.30" 1.000E-01 0.500 F 0.126 0.016 21.0 V 0.70 -0.24 o 691 0.71 Yes Yes
2015MW103 O C 2008-10-24.09235 1.000E-05 00:38:25.660 1.500E-01 0.500 F -0.176 0.013 +02° 08' 52.10" 1.000E-01 0.500 F 0.309 0.214 21.7 V 0.70 0.02 o 691 0.44 Yes Yes
2003SG170 O C H 2008-10-24.09235 1.000E-05 00:37:33.280 1.500E-01 0.500 F -0.176 -0.103 +01° 56' 58.50" 1.000E-01 0.500 F 0.309 0.043 19.9 V 0.70 0.34 o 691 0.22 Yes Yes
2008TA1 O C 2008-10-24.09504 1.000E-05 00:40:13.620 1.500E-01 0.500 F -0.176 -0.208 +04° 14' 58.30" 1.000E-01 0.500 F 0.064 -0.304 19.7 V 0.70 -0.55 o 691 0.74 Yes Yes
2005TR15 O C H 2008-10-24.11482 1.000E-05 00:32:35.290 1.500E-01 0.500 F -0.194 0.710 +05° 32' 10.80" 1.000E-01 0.500 F 0.126 0.764 21.3 V 0.70 0.06 o 691 2.09 Yes Yes
2015MW103 O C 2008-10-24.11752 1.000E-05 00:38:24.440 1.500E-01 0.500 F -0.176 -0.671 +02° 08' 51.50" 1.000E-01 0.500 F 0.309 -0.736 21.5 V 0.70 -0.18 o 691 2.11 Yes Yes
2003SG170 O C H 2008-10-24.11752 1.000E-05 00:37:30.730 1.500E-01 0.500 F -0.176 -0.123 +01° 56' 05.20" 1.000E-01 0.500 F 0.309 -0.247 20.0 V 0.70 0.43 o 691 0.55 Yes Yes
2008TA1 O C 2008-10-24.12022 1.000E-05 00:40:10.240 1.500E-01 0.500 F -0.176 -0.246 +04° 14' 56.00" 1.000E-01 0.500 F 0.064 -0.033 20.0 V 0.70 -0.25 o 691 0.50 Yes Yes
2005TR15 O C H 2008-10-24.13654 1.000E-05 00:32:34.300 1.500E-01 0.500 F -0.194 0.371 +05° 31' 59.40" 1.000E-01 0.500 F 0.126 -0.065 21.4 V 0.70 0.16 o 691 0.76 Yes Yes
2015MW103 O C 2008-10-24.13924 1.000E-05 00:38:23.440 1.500E-01 0.500 F -0.176 -0.367 +02° 08' 52.30" 1.000E-01 0.500 F 0.309 -0.238 21.1 V 0.70 -0.58 o 691 0.93 Yes Yes
2008TA1 O C 2008-10-24.14193 1.000E-05 00:40:07.320 1.500E-01 0.500 F -0.176 -0.240 +04° 14' 53.70" 1.000E-01 0.500 F 0.064 -0.110 19.9 V 0.70 -0.35 o 691 0.53 Yes Yes
2008HB38 O C 2008-10-24.22434 1.000E-05 03:18:00.330 1.500E-01 0.500 F -0.262 -0.616 +14° 36' 10.00" 1.000E-01 0.500 F 0.247 -0.109 20.3 V 0.70 -0.19 o 691 1.27 Yes Yes
2008HB38 O C 2008-10-24.24198 1.000E-05 03:17:57.880 1.500E-01 0.500 F -0.262 -0.270 +14° 36' 04.00" 1.000E-01 0.500 F 0.247 -0.501 20.3 V 0.70 -0.19 o 691 1.15 Yes Yes
2008HB38 O C 2008-10-24.25962 1.000E-05 03:17:55.390 1.500E-01 0.500 F -0.262 -0.343 +14° 35' 59.40" 1.000E-01 0.500 F 0.247 0.556 20.3 V 0.70 -0.19 o 691 1.31 Yes Yes
2008SP7 O C 2008-10-24.28245 1.000E-05 03:35:39.940 1.500E-01 0.500 F -0.214 -0.150 +21° 11' 53.20" 1.000E-01 0.500 F 0.223 -0.087 18.2 V 0.70 -0.08 o 691 0.35 Yes Yes
2008SP7 O C 2008-10-24.30361 1.000E-05 03:35:39.450 1.500E-01 0.500 F -0.214 -0.032 +21° 12' 31.10" 1.000E-01 0.500 F 0.223 -0.261 19.5 V 0.70 1.22 o 691 0.53 Yes Yes
2008SP7 O C 2008-10-24.32130 1.000E-05 03:35:39.020 1.500E-01 0.500 F -0.214 -0.090 +21° 13' 03.00" 1.000E-01 0.500 F 0.223 -0.091 18.1 V 0.70 -0.18 o 691 0.26 Yes Yes
2007JJ35 O C 2008-10-24.34458 1.000E-05 04:02:42.470 1.500E-01 0.500 F -0.086 -0.062 +24° 27' 34.00" 1.000E-01 0.500 F 0.228 -0.220 20.8 V 0.70 -0.58 o 691 0.46 Yes Yes
2007JJ35 O C 2008-10-24.36032 1.000E-05 04:02:41.070 1.500E-01 0.500 F -0.086 -0.167 +24° 27' 09.90" 1.000E-01 0.500 F 0.228 -0.007 21.4 V 0.70 0.02 o 691 0.34 Yes Yes
2007JJ35 O C 2008-10-24.37646 1.000E-05 04:02:39.640 1.500E-01 0.500 F -0.086 -0.179 +24° 26' 45.10" 1.000E-01 0.500 F 0.228 0.157 20.7 V 0.70 -0.68 o 691 0.48 Yes Yes
2008WN2 O C 2008-10-24.38746 1.000E-05 04:26:03.310 1.500E-01 0.500 F -0.247 0.077 +22° 32' 47.00" 1.000E-01 0.500 F 0.189 0.234 21.1 V 0.70 0.06 o 691 0.49 Yes Yes
2008WN2 O C 2008-10-24.40516 1.000E-05 04:26:03.490 1.500E-01 0.500 F -0.247 0.007 +22° 32' 41.20" 1.000E-01 0.500 F 0.189 -0.204 20.9 V 0.70 -0.14 o 691 0.41 Yes Yes
2008WN2 O C 2008-10-24.42286 1.000E-05 04:26:03.670 1.500E-01 0.500 F -0.247 -0.052 +22° 32' 36.20" 1.000E-01 0.500 F 0.189 0.238 21.1 V 0.70 0.06 o 691 0.49 Yes Yes
2000TV28 O C H 2008-10-24.44536 1.000E-05 05:06:03.020 1.500E-01 0.500 F -0.301 -0.845 +18° 50' 02.00" 1.000E-01 0.500 F 0.214 0.492 21.1 V 0.70 -0.26 o 691 2.03 Yes Yes
2008UN3 O C 2008-10-24.45299 1.000E-05 04:57:27.680 1.500E-01 0.500 F -0.263 -0.305 +17° 46' 07.30" 1.000E-01 0.500 F 0.206 0.423 20.4 V 0.70 -0.42 o 691 1.07 Yes Yes
2008UN3 O C 2008-10-24.47064 1.000E-05 04:57:26.510 1.500E-01 0.500 F -0.263 -0.295 +17° 47' 28.80" 1.000E-01 0.500 F 0.206 0.159 20.2 V 0.70 -0.62 o 691 0.68 Yes Yes
2000TV28 O C H 2008-10-24.48065 1.000E-05 05:06:06.780 1.500E-01 0.500 F -0.301 -0.046 +18° 50' 13.20" 1.000E-01 0.500 F 0.214 -0.925 o 691 1.89 Yes No
2008UN3 O C 2008-10-24.48830 1.000E-05 04:57:25.350 1.500E-01 0.500 F -0.263 -0.197 +17° 48' 50.90" 1.000E-01 0.500 F 0.206 0.479 20.3 V 0.70 -0.52 o 691 1.06 Yes Yes
1999YB O C 2008-10-25.20797 1.000E-05 03:06:10.520 1.500E-01 0.500 F -0.102 -0.248 +20° 00' 43.60" 1.000E-01 0.500 F 0.231 -0.029 18.5 V 0.70 0.21 o 691 0.50 Yes Yes
1999YB O C 2008-10-25.22566 1.000E-05 03:06:08.400 1.500E-01 0.500 F -0.102 -0.090 +20° 00' 50.60" 1.000E-01 0.500 F 0.231 -0.110 18.2 V 0.70 -0.09 o 691 0.29 Yes Yes
1999YB O C 2008-10-25.24336 1.000E-05 03:06:06.250 1.500E-01 0.500 F -0.102 -0.180 +20° 00' 57.70" 1.000E-01 0.500 F 0.231 -0.038 18.4 V 0.70 0.11 o 691 0.37 Yes Yes
Hephaistos O C 2008-10-25.31908 1.000E-05 03:58:26.550 1.500E-01 0.500 F -0.076 -0.336 +27° 41' 05.70" 1.000E-01 0.500 F 0.150 -0.191 19.3 V 0.70 -0.02 o 691 0.77 Yes Yes
Hephaistos O C 2008-10-25.33678 1.000E-05 03:58:25.500 1.500E-01 0.500 F -0.076 -0.278 +27° 41' 05.00" 1.000E-01 0.500 F 0.150 -0.060 19.3 V 0.70 -0.02 o 691 0.57 Yes Yes
Hephaistos O C 2008-10-25.35448 1.000E-05 03:58:24.450 1.500E-01 0.500 F -0.076 -0.207 +27° 41' 04.20" 1.000E-01 0.500 F 0.150 -0.014 19.4 V 0.70 0.08 o 691 0.42 Yes Yes
2001VG5 O C H 2008-10-25.42012 1.000E-05 04:49:49.120 1.500E-01 0.500 F -0.162 -0.096 +29° 04' 52.20" 1.000E-01 0.500 F 0.281 0.077 19.7 V 0.70 0.20 o 691 0.24 Yes Yes
2001VG5 O C H 2008-10-25.43824 1.000E-05 04:49:48.990 1.500E-01 0.500 F -0.162 0.166 +29° 04' 47.70" 1.000E-01 0.500 F 0.281 -0.137 19.6 V 0.70 0.10 o 691 0.43 Yes Yes
2001VG5 O C H 2008-10-25.45594 1.000E-05 04:49:48.830 1.500E-01 0.500 F -0.162 -0.012 +29° 04' 43.90" 1.000E-01 0.500 F 0.281 0.296 19.7 V 0.70 0.20 o 691 0.59 Yes Yes
2004YJ32 O C H 2008-10-25.47993 1.000E-05 08:57:36.170 1.500E-01 0.500 F 0.025 0.370 +15° 38' 33.50" 1.000E-01 0.500 F 0.182 -0.366 20.9 V 0.70 -0.31 o 691 1.04 Yes Yes
Oljato O C 2008-10-25.48486 1.000E-05 09:12:00.330 1.500E-01 0.500 F 0.005 -0.203 +16° 14' 26.80" 1.000E-01 0.500 F 0.161 0.059 17.3 V 0.70 0.07 o 691 0.42 Yes Yes
2004YJ32 O C H 2008-10-25.49255 1.000E-05 08:57:36.820 1.500E-01 0.500 F 0.025 -0.323 +15° 38' 31.70" 1.000E-01 0.500 F 0.182 -0.322 21.1 V 0.70 -0.11 o 691 0.91 Yes Yes
Oljato O C 2008-10-25.49747 1.000E-05 09:12:04.870 1.500E-01 0.500 F 0.005 -0.308 +16° 14' 08.70" 1.000E-01 0.500 F 0.161 0.041 17.3 V 0.70 0.07 o 691 0.62 Yes Yes
2004YJ32 O C H 2008-10-25.50516 1.000E-05 08:57:37.510 1.500E-01 0.500 F 0.025 -0.414 +15° 38' 29.60" 1.000E-01 0.500 F 0.182 -0.575 21.1 V 0.70 -0.11 o 691 1.42 Yes Yes
Oljato O C 2008-10-25.51009 1.000E-05 09:12:09.330 1.500E-01 0.500 F 0.005 -1.597 +16° 13' 50.70" 1.000E-01 0.500 F 0.161 0.162 19.1 V 0.70 1.87 o 691 3.21 No Yes
2008TA1 O C H 2008-10-26.08072 1.000E-05 00:35:55.290 1.500E-01 0.500 F -0.192 0.802 +04° 11' 44.20" 1.000E-01 0.500 F 0.098 0.453 20.5 V 0.70 0.20 o 691 1.85 Yes Yes
2008TA1 O C H 2008-10-26.10185 1.000E-05 00:35:52.460 1.500E-01 0.500 F -0.192 -0.174 +04° 11' 42.20" 1.000E-01 0.500 F 0.098 0.287 20.9 V 0.70 0.60 o 691 0.67 Yes Yes
2008SW11 O C H 2008-10-26.11242 1.000E-05 00:49:49.480 1.500E-01 0.500 F -0.196 0.657 +04° 16' 37.30" 1.000E-01 0.500 F 0.136 0.154 20.9 V 0.70 -0.36 o 691 1.36 Yes Yes
2008TA1 O C H 2008-10-26.12298 1.000E-05 00:35:49.710 1.500E-01 0.500 F -0.192 0.160 +04° 11' 39.20" 1.000E-01 0.500 F 0.098 -0.875 o 691 1.78 Yes No
2008SW11 O C H 2008-10-26.13355 1.000E-05 00:49:46.590 1.500E-01 0.500 F -0.196 -0.090 +04° 16' 35.10" 1.000E-01 0.500 F 0.136 0.058 o 691 0.21 Yes No
2005YY128 O C 2008-10-26.20143 1.000E-05 03:10:13.990 1.500E-01 0.500 F -0.162 -0.199 +25° 06' 09.80" 1.000E-01 0.500 F 0.207 0.309 20.3 V 0.70 -0.16 o 691 0.74 Yes Yes
2005YY128 O C 2008-10-26.21915 1.000E-05 03:10:11.370 1.500E-01 0.500 F -0.162 -0.535 +25° 06' 00.10" 1.000E-01 0.500 F 0.207 0.246 20.5 V 0.70 0.04 o 691 1.18 Yes Yes
2005YY128 O C 2008-10-26.23685 1.000E-05 03:10:08.790 1.500E-01 0.500 F -0.162 -0.305 +25° 05' 50.40" 1.000E-01 0.500 F 0.207 0.204 20.4 V 0.70 -0.06 o 691 0.74 Yes Yes
2006BG O C 2008-10-26.26218 1.000E-05 03:24:15.040 1.500E-01 0.500 F -0.174 0.108 +27° 28' 38.90" 1.000E-01 0.500 F 0.244 -0.007 20.2 V 0.70 -0.20 o 691 0.23 Yes Yes
2006BG O C 2008-10-26.27990 1.000E-05 03:24:11.970 1.500E-01 0.500 F -0.174 -0.296 +27° 28' 27.20" 1.000E-01 0.500 F 0.244 -0.044 20.1 V 0.70 -0.30 o 691 0.59 Yes Yes
2006BG O C 2008-10-26.29761 1.000E-05 03:24:08.960 1.500E-01 0.500 F -0.174 0.121 +27° 28' 15.30" 1.000E-01 0.500 F 0.244 -0.237 20.3 V 0.70 -0.10 o 691 0.54 Yes Yes
2002VY94 O C H 2008-10-26.31515 1.000E-05 04:18:50.350 1.500E-01 0.500 F -0.192 0.329 +33° 19' 48.20" 1.000E-01 0.500 F 0.231 -0.527 19.8 V 0.70 -0.01 o 691 1.25 Yes Yes
2002VY94 O C H 2008-10-26.33295 1.000E-05 04:18:49.890 1.500E-01 0.500 F -0.192 0.154 +33° 19' 50.10" 1.000E-01 0.500 F 0.231 -0.508 19.9 V 0.70 0.09 o 691 1.06 Yes Yes
2002VY94 O C H 2008-10-26.35422 1.000E-05 04:18:49.370 1.500E-01 0.500 F -0.192 0.367 +33° 19' 52.30" 1.000E-01 0.500 F 0.231 -0.500 19.9 V 0.70 0.09 o 691 1.24 Yes Yes
2008TD2 O C H 2008-10-26.36949 1.000E-05 04:27:30.020 1.500E-01 0.500 F 0.088 -0.459 +29° 35' 22.40" 1.000E-01 0.500 F 0.060 -0.623 20.7 V 0.70 -0.05 o 691 1.57 Yes Yes
2008TD2 O C H 2008-10-26.38721 1.000E-05 04:27:27.680 1.500E-01 0.500 F 0.088 0.275 +29° 35' 31.40" 1.000E-01 0.500 F 0.060 -0.310 21.1 V 0.70 0.35 o 691 0.85 Yes Yes
2008TD2 O C H 2008-10-26.40522 1.000E-05 04:27:25.180 1.500E-01 0.500 F 0.088 -0.529 +29° 35' 39.20" 1.000E-01 0.500 F 0.060 -1.148 21.3 V 0.70 0.55 o 691 2.56 Yes Yes
2000NG11 O C 2008-10-26.47961 1.000E-05 09:43:13.660 1.500E-01 0.500 F -0.051 -0.129 +14° 19' 12.30" 1.000E-01 0.500 F 0.331 -0.333 20.8 V 0.70 0.12 o 691 0.71 Yes Yes
2000NG11 O C 2008-10-26.49225 1.000E-05 09:43:15.050 1.500E-01 0.500 F -0.051 -0.322 +14° 19' 06.30" 1.000E-01 0.500 F 0.331 0.420 20.8 V 0.70 0.12 o 691 1.06 Yes Yes
2000NG11 O C 2008-10-26.50487 1.000E-05 09:43:16.460 1.500E-01 0.500 F -0.051 -0.170 +14° 18' 58.60" 1.000E-01 0.500 F 0.331 -0.534 21.3 V 0.70 0.62 o 691 1.12 Yes Yes
2008RX24 O C 2008-10-27.10102 1.000E-05 00:31:55.140 1.500E-01 0.500 F -0.183 0.227 +05° 55' 57.60" 1.000E-01 0.500 F 0.232 0.676 20.3 V 0.70 -0.70 o 691 1.46 Yes Yes
2008TA1 O C 2008-10-27.10362 1.000E-05 00:33:44.640 1.500E-01 0.500 F -0.192 -0.457 +04° 10' 15.60" 1.000E-01 0.500 F 0.098 -0.244 20.1 V 0.70 -0.23 o 691 1.04 Yes Yes
2005TR15 O C H 2008-10-27.10363 1.000E-05 00:30:38.370 1.500E-01 0.500 F -0.133 0.466 +05° 08' 55.40" 1.000E-01 0.500 F 0.163 -0.231 o 691 1.04 Yes No
2003SG170 O C 2008-10-27.11144 1.000E-05 00:32:38.440 1.500E-01 0.500 F -0.160 -0.114 +00° 11' 02.50" 1.000E-01 0.500 F 0.240 -0.074 19.7 V 0.70 0.08 o 691 0.27 Yes Yes
2008RX24 O C 2008-10-27.12227 1.000E-05 00:31:55.950 1.500E-01 0.500 F -0.183 0.096 +05° 56' 07.40" 1.000E-01 0.500 F 0.232 -0.158 21.0 V 0.70 0.00 o 691 0.38 Yes Yes
2005TR15 O C H 2008-10-27.12487 1.000E-05 00:30:37.490 1.500E-01 0.500 F -0.133 -0.560 +05° 08' 45.90" 1.000E-01 0.500 F 0.163 -0.388 21.4 V 0.70 0.01 o 691 1.37 Yes Yes
2008TA1 O C 2008-10-27.12487 1.000E-05 00:33:41.900 1.500E-01 0.500 F -0.192 -0.296 +04° 10' 14.20" 1.000E-01 0.500 F 0.098 0.026 20.2 V 0.70 -0.13 o 691 0.60 Yes Yes
2004TL19 O C t 2008-10-27.12748 1.000E-05 00:32:01.270 1.500E-01 0.500 F -0.177 0.585 +03° 46' 40.00" 1.000E-01 0.500 F 0.178 -0.566 18.8 V 0.70 -0.10 o 691 1.64 Yes Yes
2003SG170 O C 2008-10-27.13268 1.000E-05 00:32:36.310 1.500E-01 0.500 F -0.160 -0.638 +00° 10' 17.70" 1.000E-01 0.500 F 0.240 -0.294 19.6 V 0.70 -0.02 o 691 1.41 Yes Yes
2008RX24 O C 2008-10-27.14352 1.000E-05 00:31:56.730 1.500E-01 0.500 F -0.183 -0.282 +05° 56' 18.70" 1.000E-01 0.500 F 0.232 0.535 20.6 V 0.70 -0.40 o 691 1.23 Yes Yes
2005TR15 O C H 2008-10-27.14612 1.000E-05 00:30:36.780 1.500E-01 0.500 F -0.133 1.024 +05° 08' 36.50" 1.000E-01 0.500 F 0.163 -0.438 21.4 V 0.70 0.01 o 691 2.23 Yes Yes
2008TA1 O C 2008-10-27.14612 1.000E-05 00:33:39.150 1.500E-01 0.500 F -0.192 -0.193 +04° 10' 12.40" 1.000E-01 0.500 F 0.098 -0.099 20.2 V 0.70 -0.13 o 691 0.43 Yes Yes
2004TL19 O C t 2008-10-27.14873 1.000E-05 00:32:05.320 1.500E-01 0.500 F -0.177 0.276 +03° 45' 31.20" 1.000E-01 0.500 F 0.178 -0.636 18.9 V 0.70 0.00 o 691 1.39 Yes Yes
2003SG170 O C 2008-10-27.15394 1.000E-05 00:32:34.250 1.500E-01 0.500 F -0.160 -0.002 +00° 09' 33.50" 1.000E-01 0.500 F 0.240 0.126 19.6 V 0.70 -0.02 o 691 0.26 Yes Yes
2001QP181 O C H 2008-10-27.22549 1.000E-05 03:14:59.050 1.500E-01 0.500 F -0.262 -1.416 +18° 17' 27.80" 1.000E-01 0.500 F 0.195 -0.933 21.2 V 0.70 -0.87 o 691 3.38 No Yes
2008UO90 O C 2008-10-27.22820 1.000E-05 02:54:10.620 1.500E-01 0.500 F -0.202 -0.170 +17° 14' 15.90" 1.000E-01 0.500 F 0.207 -0.035 20.8 V 0.70 -0.41 o 691 0.36 Yes Yes
2008UO90 O C 2008-10-27.24587 1.000E-05 02:54:09.290 1.500E-01 0.500 F -0.202 -0.146 +17° 14' 02.30" 1.000E-01 0.500 F 0.207 0.041 20.9 V 0.70 -0.31 o 691 0.31 Yes Yes
2001QP181 O C H 2008-10-27.26082 1.000E-05 03:14:56.190 1.500E-01 0.500 F -0.262 -1.350 +18° 17' 21.10" 1.000E-01 0.500 F 0.195 -0.360 21.3 V 0.70 -0.77 o 691 2.81 Yes Yes
2008UO90 O C 2008-10-27.26354 1.000E-05 02:54:07.960 1.500E-01 0.500 F -0.202 -0.047 +17° 13' 48.50" 1.000E-01 0.500 F 0.207 -0.046 21.3 V 0.70 0.09 o 691 0.14 Yes Yes
1986DA O C 2008-10-27.28244 1.000E-05 03:38:59.280 1.500E-01 0.500 F -0.172 -0.840 +17° 57' 46.70" 1.000E-01 0.500 F 0.180 0.376 21.2 V 0.70 0.26 o 691 1.84 Yes Yes
1986DA O C 2008-10-27.30011 1.000E-05 03:38:58.410 1.500E-01 0.500 F -0.172 -0.254 +17° 57' 43.70" 1.000E-01 0.500 F 0.180 -0.153 20.9 V 0.70 -0.04 o 691 0.59 Yes Yes
1986DA O C 2008-10-27.31779 1.000E-05 03:38:57.490 1.500E-01 0.500 F -0.172 -0.355 +17° 57' 41.10" 1.000E-01 0.500 F 0.180 -0.268 21.0 V 0.70 0.06 o 691 0.89 Yes Yes
2008US2 O C 2008-10-27.33553 1.000E-05 03:56:32.580 1.500E-01 0.500 F -0.121 -0.430 +21° 34' 05.70" 1.000E-01 0.500 F 0.069 -0.632 20.2 V 0.70 -0.50 o 691 1.55 Yes Yes
2008US2 O C 2008-10-27.35326 1.000E-05 03:56:34.770 1.500E-01 0.500 F -0.121 -0.475 +21° 34' 57.10" 1.000E-01 0.500 F 0.069 0.432 20.4 V 0.70 -0.30 o 691 1.30 Yes Yes
2008US2 O C 2008-10-27.37098 1.000E-05 03:56:36.960 1.500E-01 0.500 F -0.121 -0.400 +21° 35' 46.40" 1.000E-01 0.500 F 0.069 -0.316 20.7 V 0.70 0.00 o 691 1.04 Yes Yes
2002VY94 O C H 2008-10-27.38918 1.000E-05 04:18:24.790 1.500E-01 0.500 F -0.192 0.979 +33° 21' 26.20" 1.000E-01 0.500 F 0.231 -1.419 o 691 3.44 No No
2002VY94 O C H 2008-10-27.43272 1.000E-05 04:18:23.470 1.500E-01 0.500 F -0.192 -0.250 +33° 21' 31.20" 1.000E-01 0.500 F 0.231 -0.042 19.9 V 0.70 0.14 o 691 0.51 Yes Yes
2008SW11 O C H 2008-10-28.09776 1.000E-05 00:45:42.200 1.500E-01 0.500 F -0.166 -0.043 +04° 13' 37.90" 1.000E-01 0.500 F 0.085 0.524 21.1 V 0.70 -0.30 o 691 1.05 Yes Yes
2008SW11 O C H 2008-10-28.13588 1.000E-05 00:45:37.440 1.500E-01 0.500 F -0.166 -0.843 +04° 13' 34.90" 1.000E-01 0.500 F 0.085 0.228 21.2 V 0.70 -0.20 o 691 1.75 Yes Yes
2001SG276 O C 2008-10-28.15498 1.000E-05 02:47:36.270 1.500E-01 0.500 F -0.263 -0.111 +21° 40' 12.10" 1.000E-01 0.500 F 0.286 0.323 19.1 V 0.70 0.08 o 691 0.68 Yes Yes
2001SG276 O C 2008-10-28.17269 1.000E-05 02:47:33.430 1.500E-01 0.500 F -0.263 -0.386 +21° 40' 25.30" 1.000E-01 0.500 F 0.286 -0.007 19.1 V 0.70 0.08 o 691 0.77 Yes Yes
2001SG276 O C 2008-10-28.19040 1.000E-05 02:47:30.620 1.500E-01 0.500 F -0.263 -0.140 +21° 40' 38.70" 1.000E-01 0.500 F 0.286 -0.106 19.3 V 0.70 0.28 o 691 0.35 Yes Yes
2008HB38 O C 2008-10-28.21106 1.000E-05 03:09:20.550 1.500E-01 0.612 F -0.171 -0.027 +14° 13' 51.10" 1.000E-01 0.612 F 0.178 0.356 20.4 V 0.70 -0.09 o 691 0.58 Yes Yes
2005UP156 O C 2008-10-28.21863 1.000E-05 03:10:50.610 1.500E-01 0.500 F -0.202 -0.276 +13° 51' 18.50" 1.000E-01 0.500 F 0.248 -0.107 19.6 V 0.70 -0.06 o 691 0.59 Yes Yes
2008HB38 O C 2008-10-28.21863 1.000E-05 03:09:19.530 1.500E-01 0.612 F -0.171 -0.272 +14° 13' 48.40" 1.000E-01 0.612 F 0.178 -0.018 20.2 V 0.70 -0.29 o 691 0.45 Yes Yes
2008HB38 O C 2008-10-28.22877 1.000E-05 03:09:18.190 1.500E-01 0.612 F -0.171 -0.173 +14° 13' 45.40" 1.000E-01 0.612 F 0.178 0.110 20.3 V 0.70 -0.19 o 691 0.34 Yes Yes
2005UP156 O C 2008-10-28.23633 1.000E-05 03:10:49.090 1.500E-01 0.500 F -0.202 -0.429 +13° 51' 10.20" 1.000E-01 0.500 F 0.248 -0.277 19.5 V 0.70 -0.16 o 691 1.02 Yes Yes
2008HB38 O C 2008-10-28.23633 1.000E-05 03:09:17.190 1.500E-01 0.612 F -0.171 -0.081 +14° 13' 43.00" 1.000E-01 0.612 F 0.178 0.052 20.4 V 0.70 -0.09 o 691 0.16 Yes Yes
2008HB38 O C 2008-10-28.24647 1.000E-05 03:09:15.820 1.500E-01 0.612 F -0.171 -0.338 +14° 13' 39.90" 1.000E-01 0.612 F 0.178 0.106 20.4 V 0.70 -0.09 o 691 0.58 Yes Yes
2005UP156 O C 2008-10-28.25403 1.000E-05 03:10:47.590 1.500E-01 0.500 F -0.202 -0.239 +13° 51' 02.20" 1.000E-01 0.500 F 0.248 -0.131 19.5 V 0.70 -0.16 o 691 0.55 Yes Yes
2008HB38 O C 2008-10-28.25403 1.000E-05 03:09:14.810 1.500E-01 0.612 F -0.171 -0.336 +14° 13' 37.50" 1.000E-01 0.612 F 0.178 0.068 20.3 V 0.70 -0.19 o 691 0.57 Yes Yes
2001HG31 O C 2008-10-28.26941 1.000E-05 03:28:06.950 1.500E-01 0.500 F -0.204 -0.044 +20° 24' 49.90" 1.000E-01 0.500 F 0.289 0.113 16.1 V 0.70 0.14 o 691 0.24 Yes Yes
2001HG31 O C 2008-10-28.28713 1.000E-05 03:28:06.700 1.500E-01 0.500 F -0.204 -0.236 +20° 25' 02.90" 1.000E-01 0.500 F 0.289 -0.108 16.2 V 0.70 0.24 o 691 0.52 Yes Yes
2001HG31 O C 2008-10-28.30484 1.000E-05 03:28:06.460 1.500E-01 0.500 F -0.204 -0.206 +20° 25' 16.20" 1.000E-01 0.500 F 0.289 0.031 16.2 V 0.70 0.24 o 691 0.42 Yes Yes
2008WN2 O C 2008-10-28.37562 1.000E-05 04:26:48.440 1.500E-01 0.500 F -0.177 -0.384 +22° 09' 50.30" 1.000E-01 0.500 F 0.171 0.217 20.5 V 0.70 -0.29 o 691 0.88 Yes Yes
2005TB O C t 2008-10-28.38319 1.000E-05 04:29:38.040 1.500E-01 0.500 F -0.177 0.347 +20° 30' 36.40" 1.000E-01 0.500 F 0.144 -0.469 17.6 V 0.70 -0.50 o 691 1.18 Yes Yes
2008WN2 O C 2008-10-28.39333 1.000E-05 04:26:48.400 1.500E-01 0.500 F -0.177 -0.299 +22° 09' 43.10" 1.000E-01 0.500 F 0.171 -0.150 20.3 V 0.70 -0.49 o 691 0.67 Yes Yes
2005TB O C t 2008-10-28.40091 1.000E-05 04:29:35.470 1.500E-01 0.500 F -0.177 0.333 +20° 29' 48.90" 1.000E-01 0.500 F 0.144 -0.377 17.6 V 0.70 -0.50 o 691 1.01 Yes Yes

[1-200] [201-400] [401-600] [601-800] [801-1000] [1001-1200] [1201-1400] [1401-1600] [1601-1800] [1801-2000] [2001-2200] [2201-2400] [2401-2600] [2601-2800] [2801-3000] [3001-3200] [3201-3400] [3401-3600] [3601-3800] [3801-4000] [4001-4200] [4201-4400] [4401-4600] [4601-4800] [4801-5000] [5001-5200] [5201-5400] [5401-5600] [5601-5800] [5801-6000] [6001-6200] [6201-6400] [6401-6600] [6601-6800] [6801-7000] [7001-7200] [7201-7400] [7401-7600] [7601-7800] [7801-8000] [8001-8200] [8201-8400] [8401-8600] [8601-8800] [8801-9000] [9001-9200] [9201-9400] [9401-9600] [9601-9800] [9801-10000] [10001-10200] [10201-10400] [10401-10600] [10601-10800] [10801-11000] [11001-11200] [11201-11400] [11401-11600] [11601-11800] [11801-12000] [12001-12200] [12201-12400] [12401-12600] [12601-12800] [12801-13000] [13001-13200] [13201-13400] [13401-13600] [13601-13800] [13801-14000] [14001-14200] [14201-14400] [14401-14600] [14601-14800] [14801-15000] [15001-15200] [15201-15400] [15401-15600] [15601-15800] [15801-16000] [16001-16200] [16201-16400] [16401-16600] [16601-16800] [16801-17000] [17001-17200] [17201-17400] [17401-17600] [17601-17800] [17801-18000] [18001-18200] [18201-18400] [18401-18600] [18601-18800] [18801-19000] [19001-19200] [19201-19400] [19401-19600] [19601-19800] [19801-20000] [20001-20200] [20201-20400] [20401-20600] [20601-20800] [20801-21000] [21001-21200] [21201-21400] [21401-21600] [21601-21800] [21801-22000] [22001-22200] [22201-22400] [22401-22600] [22601-22800] [22801-23000] [23001-23200] [23201-23400] [23401-23600] [23601-23800] [23801-24000] [24001-24200] [24201-24400] [24401-24600] [24601-24800] [24801-25000] [25001-25200] [25201-25400] [25401-25600] [25601-25800] [25801-26000] [26001-26200] [26201-26400] [26401-26600] [26601-26800] [26801-27000] [27001-27200] [27201-27400] [27401-27600] [27601-27800] [27801-28000] [28001-28200] [28201-28400] [28401-28600] [28601-28800] [28801-29000] [29001-29200] [29201-29400] [29401-29600] [29601-29800] [29801-30000] [30001-30200] [30201-30400] [30401-30600] [30601-30800] [30801-31000] [31001-31200] [31201-31400] [31401-31600] [31601-31800] [31801-32000] [32001-32200] [32201-32400] [32401-32600] [32601-32800] [32801-33000] [33001-33200] [33201-33400] [33401-33600] [33601-33800] [33801-34000] [34001-34200] [34201-34400] [34401-34600] [34601-34800] [34801-35000] [35001-35200] [35201-35400] [35401-35600] [35601-35800] [35801-36000] [36001-36200] [36201-36400] [36401-36600] [36601-36800] [36801-37000] [37001-37200] [37201-37400] [37401-37600] [37601-37800] [37801-38000] [38001-38200] [38201-38400] [38401-38600] [38601-38800] [38801-39000] [39001-39200] [39201-39400] [39401-39600] [39601-39800] [39801-40000] [40001-40200] [40201-40400] [40401-40600] [40601-40800] [40801-41000] [41001-41200] [41201-41400] [41401-41600] [41601-41800] [41801-42000] [42001-42200] [42201-42400] [42401-42600] [42601-42800] [42801-43000] [43001-43200] [43201-43400] [43401-43600] [43601-43800] [43801-44000] [44001-44200] [44201-44400] [44401-44600] [44601-44800] [44801-45000] [45001-45200] [45201-45400] [45401-45600] [45601-45800] [45801-46000] [46001-46200] [46201-46400] [46401-46600] [46601-46800] [46801-47000] [47001-47200] [47201-47400] [47401-47600] [47601-47800] [47801-48000] [48001-48200] [48201-48400] [48401-48600] [48601-48800] [48801-49000] [49001-49200] [49201-49400] [49401-49600] [49601-49800] [49801-50000] [50001-50200] [50201-50388]